createdAt,value
2023-03-28T00:01:35.567Z,86.46
2023-03-28T00:04:04.808Z,86.38
2023-03-28T00:06:32.994Z,86.71
2023-03-28T00:09:00.687Z,86.25
2023-03-28T00:11:29.719Z,85.84
2023-03-28T00:14:00.481Z,85.36
2023-03-28T00:16:32.130Z,85.61
2023-03-28T00:19:01.283Z,85.80
2023-03-28T00:21:31.272Z,85.69
2023-03-28T00:24:02.385Z,86.59
2023-03-28T00:26:34.387Z,85.74
2023-03-28T00:29:03.809Z,86.22
2023-03-28T00:31:32.413Z,85.52
2023-03-28T00:34:00.125Z,85.75
2023-03-28T00:36:29.549Z,85.62
2023-03-28T00:38:58.290Z,85.31
2023-03-28T00:41:31.231Z,85.51
2023-03-28T00:44:01.168Z,84.94
2023-03-28T00:46:33.447Z,84.70
2023-03-28T00:49:05.702Z,84.92
2023-03-28T00:51:37.019Z,84.56
2023-03-28T00:54:09.119Z,85.24
2023-03-28T00:56:39.122Z,84.98
2023-03-28T00:59:10.931Z,85.00
2023-03-28T01:01:38.781Z,85.17
2023-03-28T01:04:10.259Z,85.00
2023-03-28T01:06:43.023Z,85.10
2023-03-28T01:09:11.121Z,85.64
2023-03-28T01:11:41.887Z,85.79
2023-03-28T01:14:13.341Z,85.63
2023-03-28T01:16:42.979Z,85.36
2023-03-28T01:19:16.416Z,85.70
2023-03-28T01:22:25.268Z,85.56
2023-03-28T01:25:19.760Z,85.59
2023-03-28T01:28:02.038Z,86.01
2023-03-28T01:31:04.744Z,86.22
2023-03-28T01:34:11.322Z,86.38
2023-03-28T01:37:05.597Z,86.21
2023-03-28T01:39:52.671Z,86.15
2023-03-28T01:42:28.196Z,86.00
2023-03-28T01:45:07.777Z,86.31
2023-03-28T01:47:39.790Z,86.55
2023-03-28T01:50:15.076Z,87.01
2023-03-28T01:52:53.199Z,87.15
2023-03-28T01:55:25.401Z,87.16
2023-03-28T01:58:00.072Z,87.51
2023-03-28T02:00:32.636Z,86.33
2023-03-28T02:03:06.571Z,86.23
2023-03-28T02:05:36.145Z,86.40
2023-03-28T02:08:09.272Z,85.98
2023-03-28T02:10:40.667Z,86.09
2023-03-28T02:13:12.141Z,85.81
2023-03-28T02:15:42.266Z,86.06
2023-03-28T02:18:16.648Z,85.87
2023-03-28T02:20:46.859Z,85.85
2023-03-28T02:23:19.832Z,85.87
2023-03-28T02:25:48.278Z,85.56
2023-03-28T02:28:17.244Z,85.36
2023-03-28T02:30:45.535Z,85.99
2023-03-28T02:33:35.010Z,85.68
2023-03-28T02:36:26.418Z,85.45
2023-03-28T02:39:08.342Z,85.72
2023-03-28T02:41:47.149Z,86.19
2023-03-28T02:44:28.533Z,86.03
2023-03-28T02:47:09.626Z,85.74
2023-03-28T02:49:50.952Z,85.30
2023-03-28T02:52:35.221Z,85.23
2023-03-28T02:55:16.970Z,85.70
2023-03-28T02:57:50.913Z,85.26
2023-03-28T03:00:20.770Z,84.94
2023-03-28T03:02:51.466Z,85.20
2023-03-28T03:05:20.649Z,85.09
2023-03-28T03:07:49.648Z,85.10
2023-03-28T03:10:19.199Z,84.77
2023-03-28T03:12:47.403Z,84.81
2023-03-28T03:15:17.211Z,83.96
2023-03-28T03:17:45.418Z,84.67
2023-03-28T03:20:13.152Z,84.69
2023-03-28T03:22:41.513Z,84.74
2023-03-28T03:25:13.058Z,84.75
2023-03-28T03:27:43.299Z,85.42
2023-03-28T03:30:11.858Z,86.08
2023-03-28T03:32:39.498Z,86.03
2023-03-28T03:35:07.846Z,86.44
2023-03-28T03:37:35.500Z,86.51
2023-03-28T03:40:05.639Z,86.78
2023-03-28T03:42:33.706Z,87.14
2023-03-28T03:45:02.904Z,86.80
2023-03-28T03:47:30.651Z,86.80
2023-03-28T03:49:58.452Z,86.60
2023-03-28T03:52:27.134Z,86.31
2023-03-28T03:54:54.844Z,85.75
2023-03-28T03:57:22.603Z,85.86
2023-03-28T03:59:50.382Z,85.56
2023-03-28T04:02:19.541Z,85.61
2023-03-28T04:04:47.839Z,86.01
2023-03-28T04:07:16.158Z,85.96
2023-03-28T04:09:43.790Z,85.91
2023-03-28T04:12:12.970Z,86.29
2023-03-28T04:14:40.541Z,86.72
2023-03-28T04:17:08.430Z,86.27
2023-03-28T04:19:40.613Z,86.79
2023-03-28T04:22:12.912Z,86.94
2023-03-28T04:24:41.672Z,87.09
2023-03-28T04:27:09.755Z,86.56
2023-03-28T04:29:37.849Z,85.93
2023-03-28T04:32:06.641Z,85.69
2023-03-28T04:34:37.037Z,85.56
2023-03-28T04:37:09.125Z,85.74
2023-03-28T04:39:37.060Z,85.84
2023-03-28T04:42:06.007Z,85.78
2023-03-28T04:44:33.751Z,86.42
2023-03-28T04:47:01.538Z,86.63
2023-03-28T04:49:29.275Z,87.06
2023-03-28T04:51:57.053Z,87.30
2023-03-28T04:54:27.067Z,86.92
2023-03-28T04:56:55.161Z,86.85
2023-03-28T04:59:23.109Z,86.98
2023-03-28T05:01:50.992Z,87.26
2023-03-28T05:04:19.486Z,87.48
2023-03-28T05:06:47.570Z,87.44
2023-03-28T05:09:16.303Z,87.46
2023-03-28T05:11:46.381Z,87.40
2023-03-28T05:14:14.326Z,87.68
2023-03-28T05:16:42.120Z,87.85
2023-03-28T05:19:10.604Z,87.78
2023-03-28T05:21:38.374Z,88.03
2023-03-28T05:24:06.906Z,87.74
2023-03-28T05:26:34.610Z,88.25
2023-03-28T05:29:03.943Z,88.05
2023-03-28T05:31:32.113Z,87.91
2023-03-28T05:33:59.873Z,87.81
2023-03-28T05:36:28.863Z,87.84
2023-03-28T05:38:56.523Z,87.80
2023-03-28T05:41:24.509Z,88.40
2023-03-28T05:43:52.178Z,88.20
2023-03-28T05:46:21.320Z,88.46
2023-03-28T05:48:49.576Z,88.29
2023-03-28T05:51:18.037Z,88.39
2023-03-28T05:53:45.714Z,87.94
2023-03-28T05:56:13.400Z,86.57
2023-03-28T05:58:41.595Z,85.27
2023-03-28T06:01:10.015Z,84.44
2023-03-28T06:03:40.294Z,83.56
2023-03-28T06:06:09.017Z,83.00
2023-03-28T06:08:37.056Z,82.13
2023-03-28T06:11:05.622Z,82.02
2023-03-28T06:13:33.300Z,81.98
2023-03-28T06:16:01.054Z,81.92
2023-03-28T06:18:28.786Z,81.78
2023-03-28T06:20:58.388Z,81.89
2023-03-28T06:23:26.616Z,81.54
2023-03-28T06:25:54.688Z,80.24
2023-03-28T06:28:22.469Z,78.94
2023-03-28T06:30:51.079Z,79.36
2023-03-28T06:33:18.775Z,79.09
2023-03-28T06:35:46.535Z,79.08
2023-03-28T06:38:15.607Z,78.67
2023-03-28T06:40:43.411Z,77.76
2023-03-28T06:43:11.135Z,77.42
2023-03-28T06:45:39.053Z,76.62
2023-03-28T06:48:07.123Z,76.44
2023-03-28T06:50:34.900Z,75.52
2023-03-28T06:53:02.567Z,75.27
2023-03-28T06:55:31.624Z,74.46
2023-03-28T06:57:59.220Z,74.34
2023-03-28T07:00:27.054Z,73.87
2023-03-28T07:02:54.765Z,74.62
2023-03-28T07:05:22.801Z,75.01
2023-03-28T07:07:50.561Z,74.59
2023-03-28T07:10:18.434Z,73.23
2023-03-28T07:12:47.676Z,71.60
2023-03-28T07:15:16.801Z,71.01
2023-03-28T07:17:46.109Z,70.15
2023-03-28T07:20:14.016Z,69.22
2023-03-28T07:22:42.119Z,68.70
2023-03-28T07:25:10.072Z,70.65
2023-03-28T07:27:38.058Z,70.79
2023-03-28T07:30:08.952Z,71.25
2023-03-28T07:32:47.903Z,73.34
2023-03-28T07:35:22.161Z,73.63
2023-03-28T07:37:49.868Z,73.07
2023-03-28T07:40:17.836Z,73.51
2023-03-28T07:42:45.533Z,72.73
2023-03-28T07:45:14.571Z,70.67
2023-03-28T07:47:42.474Z,67.62
2023-03-28T07:50:10.729Z,65.69
2023-03-28T07:52:44.106Z,61.33
2023-03-28T07:55:11.920Z,58.66
2023-03-28T07:57:39.515Z,56.83
2023-03-28T08:00:13.003Z,55.70
2023-03-28T08:02:44.987Z,54.00
2023-03-28T08:05:12.985Z,53.25
2023-03-28T08:07:42.003Z,50.20
2023-03-28T08:10:10.973Z,46.25
2023-03-28T08:12:38.652Z,46.08
2023-03-28T08:15:07.742Z,43.74
2023-03-28T08:17:35.717Z,46.45
2023-03-28T08:20:09.930Z,43.21
2023-03-28T08:22:37.784Z,48.66
2023-03-28T08:25:09.363Z,45.34
2023-03-28T08:27:37.012Z,44.93
2023-03-28T08:30:06.732Z,43.60
2023-03-28T08:32:34.475Z,44.35
2023-03-28T08:35:07.007Z,44.67
2023-03-28T08:37:35.994Z,44.80
2023-03-28T08:40:07.742Z,45.10
2023-03-28T08:43:09.740Z,43.63
2023-03-28T08:45:53.077Z,45.00
2023-03-28T08:48:27.981Z,41.28
2023-03-28T08:51:01.504Z,41.89
2023-03-28T08:53:35.248Z,39.26
2023-03-28T08:56:06.180Z,39.73
2023-03-28T08:58:42.501Z,41.28
2023-03-28T09:01:11.087Z,43.83
2023-03-28T09:03:38.851Z,45.89
2023-03-28T09:06:20.695Z,45.96
2023-03-28T09:09:11.331Z,45.96
2023-03-28T09:11:50.737Z,45.97
2023-03-28T09:14:51.810Z,43.44
2023-03-28T09:17:24.927Z,43.74
2023-03-28T09:20:12.409Z,42.59
2023-03-28T09:22:52.738Z,42.64
2023-03-28T09:25:33.637Z,41.71
2023-03-28T09:28:10.906Z,42.14
2023-03-28T09:30:42.202Z,41.90
2023-03-28T09:33:16.077Z,41.23
2023-03-28T09:35:44.311Z,40.92
2023-03-28T09:38:22.027Z,43.51
2023-03-28T09:40:54.823Z,43.14
2023-03-28T09:43:28.842Z,40.72
2023-03-28T09:46:00.593Z,39.89
2023-03-28T09:48:30.613Z,44.66
2023-03-28T09:50:59.853Z,44.53
2023-03-28T09:53:31.786Z,43.24
2023-03-28T09:56:07.654Z,41.50
2023-03-28T09:58:49.970Z,44.91
2023-03-28T10:01:40.777Z,40.86
2023-03-28T10:04:12.327Z,41.02
2023-03-28T10:06:41.730Z,40.88
2023-03-28T10:09:16.231Z,41.24
2023-03-28T10:11:55.467Z,40.44
2023-03-28T10:14:31.502Z,41.45
2023-03-28T10:17:03.465Z,40.95
2023-03-28T10:19:34.561Z,41.94
2023-03-28T10:22:07.272Z,43.49
2023-03-28T10:24:35.930Z,41.98
2023-03-28T10:27:16.430Z,41.23
2023-03-28T10:29:44.987Z,41.65
2023-03-28T10:32:14.048Z,42.30
2023-03-28T10:34:41.713Z,42.30
2023-03-28T10:37:27.215Z,43.94
2023-03-28T10:40:05.148Z,41.65
2023-03-28T10:42:43.120Z,42.02
2023-03-28T10:45:23.788Z,45.02
2023-03-28T10:47:54.726Z,46.02
2023-03-28T10:50:28.330Z,42.98
2023-03-28T10:53:10.909Z,44.46
2023-03-28T10:55:42.678Z,42.99
2023-03-28T10:58:20.480Z,42.29
2023-03-28T11:00:58.180Z,44.02
2023-03-28T11:03:41.322Z,45.94
2023-03-28T11:06:17.328Z,45.28
2023-03-28T11:08:58.094Z,46.46
2023-03-28T11:11:45.426Z,46.68
2023-03-28T11:14:25.233Z,45.43
2023-03-28T11:17:02.634Z,45.52
2023-03-28T11:19:55.152Z,44.46
2023-03-28T11:22:33.920Z,45.35
2023-03-28T11:25:15.258Z,44.05
2023-03-28T11:27:50.928Z,42.89
2023-03-28T11:30:23.957Z,43.57
2023-03-28T11:32:58.355Z,42.53
2023-03-28T11:35:31.706Z,42.51
2023-03-28T11:38:04.401Z,43.11
2023-03-28T11:40:38.097Z,43.78
2023-03-28T11:43:07.203Z,43.76
2023-03-28T11:45:50.967Z,43.84
2023-03-28T11:48:26.123Z,43.08
2023-03-28T11:51:03.563Z,43.84
2023-03-28T11:53:37.531Z,43.30
2023-03-28T11:56:14.504Z,42.97
2023-03-28T11:58:47.797Z,41.90
2023-03-28T12:01:20.502Z,42.87
2023-03-28T12:04:01.340Z,43.17
2023-03-28T12:06:37.287Z,43.44
2023-03-28T12:09:13.513Z,42.16
2023-03-28T12:11:45.586Z,43.24
2023-03-28T12:14:30.973Z,41.79
2023-03-28T12:17:02.396Z,43.07
2023-03-28T12:19:34.860Z,43.72
2023-03-28T12:22:09.305Z,39.31
2023-03-28T12:24:43.987Z,39.65
2023-03-28T12:27:21.931Z,39.52
2023-03-28T12:29:56.686Z,39.33
2023-03-28T12:32:37.730Z,38.88
2023-03-28T12:35:13.405Z,40.95
2023-03-28T12:37:51.458Z,40.45
2023-03-28T12:40:27.189Z,39.50
2023-03-28T12:42:58.939Z,40.59
2023-03-28T12:45:41.178Z,39.98
2023-03-28T12:48:16.745Z,40.27
2023-03-28T12:50:52.081Z,39.38
2023-03-28T12:53:21.894Z,38.97
2023-03-28T12:55:51.496Z,37.40
2023-03-28T12:58:28.365Z,39.10
2023-03-28T13:01:06.004Z,38.47
2023-03-28T13:03:52.331Z,38.62
2023-03-28T13:06:28.995Z,38.68
2023-03-28T13:09:23.605Z,38.30
2023-03-28T13:11:59.533Z,38.85
2023-03-28T13:14:36.433Z,40.29
2023-03-28T13:17:18.158Z,39.39
2023-03-28T13:19:51.741Z,39.68
2023-03-28T13:22:29.280Z,39.63
2023-03-28T13:25:22.187Z,38.46
2023-03-28T13:27:51.287Z,39.40
2023-03-28T13:30:21.182Z,39.50
2023-03-28T13:32:52.457Z,39.34
2023-03-28T13:35:45.683Z,40.06
2023-03-28T13:38:24.941Z,40.04
2023-03-28T13:40:55.827Z,39.04
2023-03-28T13:43:26.459Z,39.17
2023-03-28T13:45:57.848Z,39.93
2023-03-28T13:48:30.600Z,39.99
2023-03-28T13:51:05.491Z,40.07
2023-03-28T13:53:46.290Z,39.58
2023-03-28T13:56:23.543Z,39.85
2023-03-28T13:58:53.578Z,40.53
2023-03-28T14:01:25.724Z,40.27
2023-03-28T14:03:55.761Z,38.99
2023-03-28T14:06:26.737Z,39.65
2023-03-28T14:08:57.644Z,39.24
2023-03-28T14:11:30.445Z,40.08
2023-03-28T14:14:09.484Z,40.06
2023-03-28T14:16:38.242Z,39.50
2023-03-28T14:19:07.165Z,39.62
2023-03-28T14:21:36.516Z,40.43
2023-03-28T14:24:07.788Z,39.71
2023-03-28T14:26:37.042Z,39.12
2023-03-28T14:29:08.236Z,38.26
2023-03-28T14:31:38.343Z,38.69
2023-03-28T14:34:17.122Z,37.91
2023-03-28T14:36:59.206Z,38.79
2023-03-28T14:39:29.306Z,38.58
2023-03-28T14:41:58.613Z,37.80
2023-03-28T14:44:27.139Z,38.08
2023-03-28T14:46:58.456Z,38.54
2023-03-28T14:49:27.959Z,39.14
2023-03-28T14:51:59.049Z,38.87
2023-03-28T14:54:29.652Z,38.42
2023-03-28T14:56:59.303Z,38.45
2023-03-28T14:59:36.740Z,38.04
2023-03-28T15:02:06.790Z,38.17
2023-03-28T15:04:35.928Z,38.15
2023-03-28T15:07:09.004Z,37.28
2023-03-28T15:09:36.942Z,36.42
2023-03-28T15:12:09.124Z,37.49
2023-03-28T15:14:41.674Z,36.56
2023-03-28T15:17:16.987Z,36.68
2023-03-28T15:19:47.456Z,37.38
2023-03-28T15:22:22.587Z,39.17
2023-03-28T15:24:50.970Z,39.30
2023-03-28T15:27:24.668Z,39.87
2023-03-28T15:29:52.645Z,41.07
2023-03-28T15:32:20.909Z,40.75
2023-03-28T15:34:55.825Z,40.87
2023-03-28T15:37:27.090Z,40.92
2023-03-28T15:40:12.247Z,41.06
2023-03-28T15:42:40.562Z,41.13
2023-03-28T15:45:31.152Z,40.27
2023-03-28T15:47:58.946Z,41.20
2023-03-28T15:50:33.120Z,40.69
2023-03-28T15:53:05.991Z,39.74
2023-03-28T15:55:34.848Z,40.51
2023-03-28T15:58:04.773Z,39.50
2023-03-28T16:00:38.995Z,39.74
2023-03-28T16:03:45.130Z,40.47
2023-03-28T16:06:31.775Z,40.60
2023-03-28T16:09:16.139Z,40.42
2023-03-28T16:11:44.791Z,41.19
2023-03-28T16:14:16.380Z,40.71
2023-03-28T16:16:44.036Z,40.91
2023-03-28T16:19:18.291Z,40.68
2023-03-28T16:21:46.576Z,41.88
2023-03-28T16:24:15.832Z,41.95
2023-03-28T16:26:43.778Z,41.97
2023-03-28T16:29:12.207Z,41.16
2023-03-28T16:31:40.999Z,40.88
2023-03-28T16:34:10.062Z,41.30
2023-03-28T16:36:38.558Z,41.96
2023-03-28T16:39:06.539Z,41.42
2023-03-28T16:41:35.821Z,41.91
2023-03-28T16:44:03.577Z,41.74
2023-03-28T16:46:31.564Z,41.45
2023-03-28T16:48:59.295Z,41.73
2023-03-28T16:51:27.336Z,41.90
2023-03-28T16:53:55.022Z,41.42
2023-03-28T16:56:25.686Z,41.89
2023-03-28T16:58:54.853Z,42.67
2023-03-28T17:01:23.269Z,42.44
2023-03-28T17:03:52.642Z,42.83
2023-03-28T17:06:20.388Z,42.53
2023-03-28T17:08:48.117Z,42.25
2023-03-28T17:11:16.753Z,42.15
2023-03-28T17:13:44.434Z,43.32
2023-03-28T17:16:13.601Z,42.76
2023-03-28T17:18:41.261Z,42.25
2023-03-28T17:21:11.143Z,41.71
2023-03-28T17:23:40.423Z,42.55
2023-03-28T17:26:09.274Z,42.07
2023-03-28T17:28:39.571Z,42.68
2023-03-28T17:31:08.623Z,42.53
2023-03-28T17:33:37.976Z,42.97
2023-03-28T17:36:21.800Z,42.08
2023-03-28T17:38:51.022Z,42.69
2023-03-28T17:41:19.306Z,41.99
2023-03-28T17:43:47.364Z,42.11
2023-03-28T17:46:15.096Z,42.41
2023-03-28T17:48:44.458Z,42.12
2023-03-28T17:51:13.138Z,42.89
2023-03-28T17:53:41.641Z,43.25
2023-03-28T17:56:11.041Z,42.46
2023-03-28T17:58:39.110Z,42.46
2023-03-28T18:01:10.476Z,42.82
2023-03-28T18:03:39.068Z,43.59
2023-03-28T18:06:09.741Z,42.90
2023-03-28T18:08:37.782Z,43.11
2023-03-28T18:11:07.788Z,43.16
2023-03-28T18:13:37.086Z,43.18
2023-03-28T18:16:05.839Z,44.10
2023-03-28T18:18:34.228Z,44.75
2023-03-28T18:21:02.110Z,45.75
2023-03-28T18:23:31.885Z,47.46
2023-03-28T18:26:00.130Z,47.71
2023-03-28T18:28:28.332Z,48.28
2023-03-28T18:30:57.309Z,48.35
2023-03-28T18:33:25.343Z,48.07
2023-03-28T18:35:53.320Z,49.03
2023-03-28T18:38:21.088Z,49.67
2023-03-28T18:40:53.307Z,50.16
2023-03-28T18:43:21.322Z,49.97
2023-03-28T18:45:54.631Z,50.91
2023-03-28T18:48:22.840Z,51.46
2023-03-28T18:50:51.017Z,50.79
2023-03-28T18:53:18.783Z,51.46
2023-03-28T18:55:46.721Z,52.06
2023-03-28T18:58:16.282Z,52.31
2023-03-28T19:00:44.142Z,51.48
2023-03-28T19:03:17.670Z,52.14
2023-03-28T19:05:45.859Z,51.83
2023-03-28T19:08:13.664Z,53.21
2023-03-28T19:10:46.766Z,53.90
2023-03-28T19:13:16.085Z,53.62
2023-03-28T19:15:44.096Z,53.10
2023-03-28T19:18:12.047Z,53.29
2023-03-28T19:20:40.303Z,53.61
2023-03-28T19:23:08.702Z,53.82
2023-03-28T19:25:36.721Z,54.52
2023-03-28T19:28:04.644Z,55.42
2023-03-28T19:30:33.800Z,55.76
2023-03-28T19:33:01.639Z,56.21
2023-03-28T19:35:29.294Z,56.37
2023-03-28T19:37:58.108Z,56.22
2023-03-28T19:40:26.476Z,55.88
2023-03-28T19:42:54.246Z,56.35
2023-03-28T19:45:21.914Z,56.32
2023-03-28T19:47:51.748Z,56.86
2023-03-28T19:50:19.954Z,57.30
2023-03-28T19:52:47.759Z,59.31
2023-03-28T19:55:15.922Z,60.39
2023-03-28T19:57:43.705Z,60.12
2023-03-28T20:00:12.434Z,59.54
2023-03-28T20:02:40.388Z,58.45
2023-03-28T20:05:10.496Z,59.29
2023-03-28T20:07:38.223Z,60.75
2023-03-28T20:10:07.334Z,63.59
2023-03-28T20:12:39.544Z,65.96
2023-03-28T20:15:08.762Z,65.78
2023-03-28T20:17:36.800Z,68.04
2023-03-28T20:20:06.190Z,68.94
2023-03-28T20:22:36.368Z,69.04
2023-03-28T20:25:04.374Z,67.85
2023-03-28T20:27:32.958Z,68.32
2023-03-28T20:30:00.826Z,68.91
2023-03-28T20:32:28.653Z,70.11
2023-03-28T20:34:56.406Z,71.57
2023-03-28T20:37:24.407Z,71.18
2023-03-28T20:39:53.437Z,72.23
2023-03-28T20:42:21.340Z,72.63
2023-03-28T20:44:49.047Z,70.77
2023-03-28T20:47:22.228Z,70.57
2023-03-28T20:49:56.276Z,72.92
2023-03-28T20:52:24.988Z,73.73
2023-03-28T20:54:54.363Z,73.67
2023-03-28T20:57:22.136Z,74.79
2023-03-28T20:59:49.903Z,76.13
2023-03-28T21:02:17.710Z,74.23
2023-03-28T21:04:45.461Z,74.67
2023-03-28T21:07:14.025Z,74.45
2023-03-28T21:09:41.904Z,74.34
2023-03-28T21:12:11.191Z,74.47
2023-03-28T21:14:38.882Z,75.85
2023-03-28T21:17:08.554Z,74.44
2023-03-28T21:19:36.608Z,74.08
2023-03-28T21:22:04.328Z,75.63
2023-03-28T21:24:32.093Z,73.98
2023-03-28T21:27:00.103Z,74.09
2023-03-28T21:29:29.156Z,73.34
2023-03-28T21:31:56.945Z,71.30
2023-03-28T21:34:30.528Z,72.33
2023-03-28T21:36:58.500Z,72.86
2023-03-28T21:39:27.216Z,73.85
2023-03-28T21:41:55.142Z,72.97
2023-03-28T21:44:23.621Z,73.35
2023-03-28T21:46:52.715Z,74.95
2023-03-28T21:49:20.415Z,74.66
2023-03-28T21:51:50.045Z,73.87
2023-03-28T21:54:17.851Z,74.27
2023-03-28T21:56:45.797Z,73.56
2023-03-28T21:59:13.544Z,72.73
2023-03-28T22:01:41.233Z,70.25
2023-03-28T22:04:10.434Z,66.80
2023-03-28T22:06:38.310Z,68.01
2023-03-28T22:09:06.061Z,67.51
2023-03-28T22:11:35.053Z,67.76
2023-03-28T22:14:04.585Z,67.65
2023-03-28T22:16:34.620Z,69.60
2023-03-28T22:19:02.866Z,70.97
2023-03-28T22:21:31.974Z,69.77
2023-03-28T22:24:00.563Z,70.66
2023-03-28T22:26:28.254Z,69.64
2023-03-28T22:28:57.660Z,69.55
2023-03-28T22:31:25.978Z,69.89
2023-03-28T22:33:54.036Z,70.70
2023-03-28T22:36:21.832Z,71.49
2023-03-28T22:38:51.872Z,70.94
2023-03-28T22:41:19.560Z,71.04
2023-03-28T22:43:47.866Z,70.56
2023-03-28T22:46:16.358Z,70.83
2023-03-28T22:48:44.395Z,70.71
2023-03-28T22:51:12.562Z,71.34
2023-03-28T22:53:40.918Z,69.74
2023-03-28T22:56:10.439Z,71.27
2023-03-28T22:58:38.132Z,70.88
2023-03-28T23:01:06.538Z,70.70
2023-03-28T23:03:34.194Z,70.33
2023-03-28T23:06:06.311Z,70.10
2023-03-28T23:08:34.155Z,70.57
2023-03-28T23:11:02.112Z,71.21
2023-03-28T23:13:31.440Z,72.31
2023-03-28T23:15:59.146Z,72.75
2023-03-28T23:18:27.101Z,72.82
2023-03-28T23:20:54.752Z,73.06
2023-03-28T23:23:22.343Z,72.99
2023-03-28T23:25:50.043Z,73.07
2023-03-28T23:28:20.167Z,72.56
2023-03-28T23:30:49.384Z,73.15
2023-03-28T23:33:18.411Z,75.12
2023-03-28T23:35:48.122Z,76.87
2023-03-28T23:38:17.428Z,77.74
2023-03-28T23:40:46.278Z,78.53
2023-03-28T23:43:14.453Z,78.37
2023-03-28T23:45:42.400Z,78.31
2023-03-28T23:48:11.572Z,78.20
2023-03-28T23:50:39.404Z,77.96
2023-03-28T23:53:07.076Z,78.66
2023-03-28T23:55:35.581Z,79.82
2023-03-28T23:58:04.565Z,80.52
